Metar Aviation Weather Data YMML

30°C Temp
7°C Dewpoint
% Humidity
Temperature
13 KM/H
8 MPH
7 KTS
360°
Due North

Wind Speed
Clear
Conditions
Pressure 1009.92 (hPa) - 29.82 (in)
Visibility 6.2 (mi) - 10 (km)

Current Conditions
YMML
Metar :YMML 300730Z 36007KT CAVOK 30/07 Q1010
Tue 30th November 18:30 pm

  Metar Aviation API Data Provided by https://www.checkwx.com/ PHP scripts by weather34.com ©2021